Terminal Aerodrome Forecast
Issued by NWS Nashville, TN

Home | Current Version | Previous Version | Text Only | Print | Product List | Glossary On
Versions: 1 2 3 4 5 6 7 8 9 10 11 12 13 14 15 16 17 18 19 20 21 22 23 24 25
817
FTUS44 KOHX 022335
TAFBNA
TAF
KBNA 022335Z 0300/0324 35005KT P6SM VCSH BKN011 BKN025
     FM030200 34006KT P6SM BKN035 OVC050
     FM030600 33005KT 5SM BR OVC008
     FM030900 34002KT 4SM BR OVC004
     FM031500 32007KT P6SM BKN015
     FM031800 33010KT P6SM BKN035=

USA.gov is the U.S. government's official web portal to all federal, state and local government web resources and services.